Skip Navigation Links Skip Navigation Links

Current Weather

Stansted Apt, London

For information only: do not use for flight planning or navigation.
Latest weather
Observation time Tuesday, September 28, 2021 10:50 AM BST
Local time Tuesday, September 28, 2021 11:13 AM BST
Flight conditions Visual Meteorological Conditions
Winds
Wind direction South (190°)
Wind speed 17 mph
Visibility 6.2 mi.
Sky condition
Ceiling unlimited
Temperature 61°F
Dewpoint 52°F
Altimeter 30.06 in.Hg
Derived measurements
Relative humidity 72%
Density altitude 143 ft.
Remarks
Fully automated report.
METAR EGSS 280950Z AUTO 19015KT 9999 NCD 16/11 Q1018

Settings

Location code

InnerDrive.Weather 4.0.6770.0 Release CLR 4.0.30319.42000
Copyright ©2018 Inner Drive Technology. All rights reserved. Portions Copyright ©1986-2018 David Braverman.

Find weather

Site navigation


Skip Navigation Links

Place info

Page info

PayPal - The safer, easier way to pay online!

Return home.

Copyright ©2021 Inner Drive Technology. Purveyors of fine, hand-crafted computer software. Page printed 2021-09-28T10:13:30 UTC.